Tampico, México

8:36 PM CST en Enero 29, 2015 (GMT -0600)
Gen Francisco Javier Mina | Change Station
CLOSE
Current Station
Aeropuerto
Location: Tampico,
Altura: 79 ft
Estaciones meteorológicas cercanas

Alt 79 ft 22.30 °N, 97.87 °W | Updated 41 minutes ago

Partly Cloudy
Parcialmente nublado
64 ° F
Sensación térmica 64 ° F
N
0
Viento Variable Viento desde Norte

Hoy
Alta -- | Baja -- ° F
--% Posibilidad de precipitaciones
Ayer
Alta -- | Baja -- ° F
Precip. -- pul
7:11 AM 6:18 PM
Gibosa creciente, 79% visible
Presión 30.19 pul
Visibilidad 8.0 Millas
Nubes Baja 20000 ft
Punto de rocío 59 ° F
Humedad 83%
Precipitaciones 0.00 pul
Espesor de la nieve No disponible.
UV 0 de una escala de 12
Polen No disponible.
Calidad del aire No disponible.
Flu Activity No disponible.
METAR MMTM 300155Z 00000KT 8SM FEW200 18/15 A3019 RMK 8/001

More Conditions Fewer Conditions

Presión 30.19 pul
Visibilidad 8.0 Millas
Nubes Baja 20000 ft
Punto de rocío 59 ° F
Humedad 83%
Precipitaciones 0.00 pul
Espesor de la nieve No disponible.
UV 0 de una escala de 12
Polen No disponible.
Calidad del aire No disponible.
Flu Activity No disponible.
METAR MMTM 300155Z 00000KT 8SM FEW200 18/15 A3019 RMK 8/001

More Conditions Fewer Conditions

10-Day Weather Forecast

Almanac

Astronomía

Jan. 29, 2015 Salida Puesta
Hora real
Crepúsculo civil
Crepúsculo náutico
Crepúsculo astronómico
Luna
Horas de luz
Horas de luz
Tomorrow will be .
, % of the Moon is Illuminated

Extremos de hoy

Máximos del país Bajas del país

Community

WunderPhotos

Upload Photos

1,791,695 ¡fotos cargadas!

WunderBlogs® & News

Nearby

Calidad del aire

  Calidad del aire Índice AQ Contaminante
Not available.

Grosos de nieve

Estación Profundido Altura

Actividad de terremotos

Ciudad Distance Mag. Tiempo y dato
Magnitud mínima muestra es 2,5.

Temperaturas de aguas costeras

Lugar Temperatura

Estaciones meteorológicas cercanas